sensor_id;sensor_type;location;lat;lon;timestamp;P1;durP1;ratioP1;P2;durP2;ratioP2
8665;SDS011;4370;48.916;8.380;2023-10-19T00:01:54;9.30;;;7.80;;
8665;SDS011;4370;48.916;8.380;2023-10-19T00:04:20;9.47;;;8.10;;
8665;SDS011;4370;48.916;8.380;2023-10-19T00:06:47;9.53;;;7.07;;
8665;SDS011;4370;48.916;8.380;2023-10-19T00:09:14;8.43;;;7.17;;
8665;SDS011;4370;48.916;8.380;2023-10-19T00:11:40;8.33;;;6.73;;
8665;SDS011;4370;48.916;8.380;2023-10-19T00:14:06;9.13;;;7.93;;
8665;SDS011;4370;48.916;8.380;2023-10-19T00:16:41;9.47;;;8.47;;
8665;SDS011;4370;48.916;8.380;2023-10-19T00:19:09;8.43;;;7.40;;
8665;SDS011;4370;48.916;8.380;2023-10-19T00:21:36;7.13;;;5.80;;
8665;SDS011;4370;48.916;8.380;2023-10-19T00:24:15;6.93;;;5.77;;
8665;SDS011;4370;48.916;8.380;2023-10-19T00:26:42;6.93;;;5.07;;
8665;SDS011;4370;48.916;8.380;2023-10-19T00:29:09;6.57;;;5.40;;
8665;SDS011;4370;48.916;8.380;2023-10-19T00:31:55;7.10;;;5.80;;
8665;SDS011;4370;48.916;8.380;2023-10-19T00:34:21;10.07;;;7.77;;
8665;SDS011;4370;48.916;8.380;2023-10-19T00:36:48;8.50;;;6.20;;
8665;SDS011;4370;48.916;8.380;2023-10-19T00:39:16;7.17;;;6.13;;
8665;SDS011;4370;48.916;8.380;2023-10-19T00:41:49;7.57;;;6.30;;
8665;SDS011;4370;48.916;8.380;2023-10-19T00:44:15;8.57;;;6.80;;
8665;SDS011;4370;48.916;8.380;2023-10-19T00:46:43;7.23;;;6.53;;
8665;SDS011;4370;48.916;8.380;2023-10-19T00:49:15;8.07;;;7.23;;
8665;SDS011;4370;48.916;8.380;2023-10-19T00:51:45;7.90;;;6.70;;
8665;SDS011;4370;48.916;8.380;2023-10-19T00:54:29;6.63;;;5.97;;
8665;SDS011;4370;48.916;8.380;2023-10-19T00:57:01;6.73;;;5.80;;
8665;SDS011;4370;48.916;8.380;2023-10-19T00:59:35;8.77;;;7.77;;
8665;SDS011;4370;48.916;8.380;2023-10-19T01:02:08;7.53;;;6.63;;
8665;SDS011;4370;48.916;8.380;2023-10-19T01:04:44;6.50;;;5.53;;
8665;SDS011;4370;48.916;8.380;2023-10-19T01:07:16;6.23;;;5.23;;
8665;SDS011;4370;48.916;8.380;2023-10-19T01:09:55;8.23;;;6.77;;
8665;SDS011;4370;48.916;8.380;2023-10-19T01:12:26;8.53;;;6.47;;
8665;SDS011;4370;48.916;8.380;2023-10-19T01:15:12;7.77;;;5.47;;
8665;SDS011;4370;48.916;8.380;2023-10-19T01:17:47;6.63;;;5.57;;
8665;SDS011;4370;48.916;8.380;2023-10-19T01:20:31;5.30;;;4.80;;
8665;SDS011;4370;48.916;8.380;2023-10-19T01:23:01;6.17;;;5.10;;
8665;SDS011;4370;48.916;8.380;2023-10-19T01:28:07;9.50;;;8.33;;
8665;SDS011;4370;48.916;8.380;2023-10-19T01:30:35;8.97;;;7.17;;
8665;SDS011;4370;48.916;8.380;2023-10-19T01:33:02;8.40;;;6.60;;
8665;SDS011;4370;48.916;8.380;2023-10-19T01:35:37;15.37;;;12.20;;
8665;SDS011;4370;48.916;8.380;2023-10-19T01:38:22;16.30;;;11.97;;
8665;SDS011;4370;48.916;8.380;2023-10-19T01:40:48;13.80;;;10.77;;
8665;SDS011;4370;48.916;8.380;2023-10-19T01:43:16;10.70;;;9.13;;
8665;SDS011;4370;48.916;8.380;2023-10-19T01:45:49;9.43;;;8.00;;
8665;SDS011;4370;48.916;8.380;2023-10-19T01:48:19;8.83;;;7.13;;
8665;SDS011;4370;48.916;8.380;2023-10-19T01:50:48;10.83;;;9.60;;
8665;SDS011;4370;48.916;8.380;2023-10-19T01:53:16;8.50;;;7.50;;
8665;SDS011;4370;48.916;8.380;2023-10-19T01:55:43;8.63;;;6.40;;
8665;SDS011;4370;48.916;8.380;2023-10-19T01:58:09;6.13;;;5.40;;
8665;SDS011;4370;48.916;8.380;2023-10-19T02:00:36;5.90;;;5.20;;
8665;SDS011;4370;48.916;8.380;2023-10-19T02:03:11;6.37;;;5.60;;
8665;SDS011;4370;48.916;8.380;2023-10-19T02:05:37;5.90;;;4.90;;
8665;SDS011;4370;48.916;8.380;2023-10-19T02:08:06;6.20;;;5.50;;
8665;SDS011;4370;48.916;8.380;2023-10-19T02:10:33;10.63;;;9.40;;
8665;SDS011;4370;48.916;8.380;2023-10-19T02:13:00;8.80;;;7.87;;
8665;SDS011;4370;48.916;8.380;2023-10-19T02:15:31;6.83;;;6.13;;
8665;SDS011;4370;48.916;8.380;2023-10-19T02:17:59;8.73;;;6.60;;
8665;SDS011;4370;48.916;8.380;2023-10-19T02:20:26;14.13;;;10.00;;
8665;SDS011;4370;48.916;8.380;2023-10-19T02:22:53;8.20;;;7.10;;
8665;SDS011;4370;48.916;8.380;2023-10-19T02:25:19;8.60;;;7.20;;
8665;SDS011;4370;48.916;8.380;2023-10-19T02:27:46;7.03;;;6.33;;
8665;SDS011;4370;48.916;8.380;2023-10-19T02:30:12;5.87;;;5.27;;
8665;SDS011;4370;48.916;8.380;2023-10-19T02:32:38;5.03;;;4.60;;
8665;SDS011;4370;48.916;8.380;2023-10-19T02:35:04;5.90;;;5.30;;
8665;SDS011;4370;48.916;8.380;2023-10-19T02:37:30;6.03;;;5.43;;
8665;SDS011;4370;48.916;8.380;2023-10-19T02:39:56;6.27;;;5.67;;
8665;SDS011;4370;48.916;8.380;2023-10-19T02:42:22;7.23;;;6.53;;
8665;SDS011;4370;48.916;8.380;2023-10-19T02:44:48;7.90;;;6.83;;
8665;SDS011;4370;48.916;8.380;2023-10-19T02:47:15;8.57;;;7.53;;
8665;SDS011;4370;48.916;8.380;2023-10-19T02:49:42;10.37;;;9.37;;
8665;SDS011;4370;48.916;8.380;2023-10-19T02:52:15;8.40;;;7.50;;
8665;SDS011;4370;48.916;8.380;2023-10-19T02:54:41;6.90;;;6.30;;
8665;SDS011;4370;48.916;8.380;2023-10-19T02:57:07;5.73;;;4.80;;
8665;SDS011;4370;48.916;8.380;2023-10-19T02:59:36;4.70;;;4.20;;
8665;SDS011;4370;48.916;8.380;2023-10-19T03:02:04;4.73;;;4.30;;
8665;SDS011;4370;48.916;8.380;2023-10-19T03:04:39;4.23;;;3.83;;
8665;SDS011;4370;48.916;8.380;2023-10-19T03:07:06;3.30;;;3.00;;
8665;SDS011;4370;48.916;8.380;2023-10-19T03:09:33;3.57;;;3.27;;
8665;SDS011;4370;48.916;8.380;2023-10-19T03:12:01;4.20;;;3.03;;
8665;SDS011;4370;48.916;8.380;2023-10-19T03:14:30;3.80;;;3.50;;
8665;SDS011;4370;48.916;8.380;2023-10-19T03:16:57;3.63;;;3.33;;
8665;SDS011;4370;48.916;8.380;2023-10-19T03:19:25;5.00;;;4.50;;
8665;SDS011;4370;48.916;8.380;2023-10-19T03:21:51;6.53;;;5.63;;
8665;SDS011;4370;48.916;8.380;2023-10-19T03:24:17;4.77;;;4.27;;
8665;SDS011;4370;48.916;8.380;2023-10-19T03:27:03;8.50;;;7.17;;
8665;SDS011;4370;48.916;8.380;2023-10-19T03:29:40;9.37;;;6.87;;
8665;SDS011;4370;48.916;8.380;2023-10-19T03:32:10;18.03;;;13.73;;
8665;SDS011;4370;48.916;8.380;2023-10-19T03:34:37;13.43;;;11.27;;
8665;SDS011;4370;48.916;8.380;2023-10-19T03:37:03;17.87;;;13.87;;
8665;SDS011;4370;48.916;8.380;2023-10-19T03:39:31;13.43;;;10.80;;
8665;SDS011;4370;48.916;8.380;2023-10-19T03:41:58;9.37;;;7.80;;
8665;SDS011;4370;48.916;8.380;2023-10-19T03:44:24;9.87;;;7.70;;
8665;SDS011;4370;48.916;8.380;2023-10-19T03:46:51;9.70;;;7.70;;
8665;SDS011;4370;48.916;8.380;2023-10-19T03:49:22;9.40;;;6.67;;
8665;SDS011;4370;48.916;8.380;2023-10-19T03:51:55;16.13;;;11.33;;
8665;SDS011;4370;48.916;8.380;2023-10-19T03:54:33;12.33;;;9.60;;
8665;SDS011;4370;48.916;8.380;2023-10-19T03:57:05;12.97;;;9.90;;
8665;SDS011;4370;48.916;8.380;2023-10-19T03:59:36;10.83;;;8.90;;
8665;SDS011;4370;48.916;8.380;2023-10-19T04:02:03;12.10;;;10.20;;
8665;SDS011;4370;48.916;8.380;2023-10-19T04:04:38;12.30;;;10.07;;
8665;SDS011;4370;48.916;8.380;2023-10-19T04:07:08;14.00;;;9.00;;
8665;SDS011;4370;48.916;8.380;2023-10-19T04:09:39;13.00;;;10.50;;
8665;SDS011;4370;48.916;8.380;2023-10-19T04:12:22;16.10;;;12.37;;
8665;SDS011;4370;48.916;8.380;2023-10-19T04:14:48;16.73;;;13.10;;
8665;SDS011;4370;48.916;8.380;2023-10-19T04:17:14;11.83;;;9.37;;
8665;SDS011;4370;48.916;8.380;2023-10-19T04:19:42;12.33;;;8.90;;
8665;SDS011;4370;48.916;8.380;2023-10-19T04:22:09;10.33;;;7.50;;
8665;SDS011;4370;48.916;8.380;2023-10-19T04:24:46;13.83;;;10.10;;
8665;SDS011;4370;48.916;8.380;2023-10-19T04:27:12;13.23;;;10.10;;
8665;SDS011;4370;48.916;8.380;2023-10-19T04:29:38;11.70;;;7.73;;
8665;SDS011;4370;48.916;8.380;2023-10-19T04:32:06;8.57;;;6.67;;
8665;SDS011;4370;48.916;8.380;2023-10-19T04:34:32;7.40;;;6.70;;
8665;SDS011;4370;48.916;8.380;2023-10-19T04:36:58;9.47;;;6.80;;
8665;SDS011;4370;48.916;8.380;2023-10-19T04:39:24;12.87;;;9.60;;
8665;SDS011;4370;48.916;8.380;2023-10-19T04:41:50;10.63;;;8.17;;
8665;SDS011;4370;48.916;8.380;2023-10-19T04:44:15;14.83;;;9.77;;
8665;SDS011;4370;48.916;8.380;2023-10-19T04:46:41;11.47;;;8.13;;
8665;SDS011;4370;48.916;8.380;2023-10-19T04:49:07;17.77;;;10.17;;
8665;SDS011;4370;48.916;8.380;2023-10-19T04:51:34;13.43;;;8.53;;
8665;SDS011;4370;48.916;8.380;2023-10-19T04:54:03;10.33;;;7.20;;
8665;SDS011;4370;48.916;8.380;2023-10-19T04:56:30;9.83;;;7.33;;
8665;SDS011;4370;48.916;8.380;2023-10-19T04:58:57;9.23;;;7.93;;
8665;SDS011;4370;48.916;8.380;2023-10-19T05:01:24;8.53;;;7.03;;
8665;SDS011;4370;48.916;8.380;2023-10-19T05:03:50;12.63;;;9.00;;
8665;SDS011;4370;48.916;8.380;2023-10-19T05:06:16;12.43;;;8.80;;
8665;SDS011;4370;48.916;8.380;2023-10-19T05:08:42;10.40;;;7.23;;
8665;SDS011;4370;48.916;8.380;2023-10-19T05:11:08;8.47;;;7.00;;
8665;SDS011;4370;48.916;8.380;2023-10-19T05:13:35;10.93;;;8.40;;
8665;SDS011;4370;48.916;8.380;2023-10-19T05:16:00;11.57;;;8.47;;
8665;SDS011;4370;48.916;8.380;2023-10-19T05:18:27;15.30;;;11.53;;
8665;SDS011;4370;48.916;8.380;2023-10-19T05:20:53;20.30;;;13.17;;
8665;SDS011;4370;48.916;8.380;2023-10-19T05:23:25;14.33;;;10.53;;
8665;SDS011;4370;48.916;8.380;2023-10-19T05:25:52;15.70;;;9.70;;
8665;SDS011;4370;48.916;8.380;2023-10-19T05:28:19;18.00;;;11.33;;
8665;SDS011;4370;48.916;8.380;2023-10-19T05:30:46;19.40;;;11.20;;
8665;SDS011;4370;48.916;8.380;2023-10-19T05:33:13;15.77;;;10.03;;
8665;SDS011;4370;48.916;8.380;2023-10-19T05:35:39;15.13;;;10.03;;
8665;SDS011;4370;48.916;8.380;2023-10-19T05:38:06;18.80;;;12.30;;
8665;SDS011;4370;48.916;8.380;2023-10-19T05:40:32;23.93;;;14.03;;
8665;SDS011;4370;48.916;8.380;2023-10-19T05:42:59;22.70;;;13.97;;
8665;SDS011;4370;48.916;8.380;2023-10-19T05:45:26;30.93;;;15.80;;
8665;SDS011;4370;48.916;8.380;2023-10-19T05:47:53;18.43;;;12.40;;
8665;SDS011;4370;48.916;8.380;2023-10-19T05:50:19;21.53;;;11.67;;
8665;SDS011;4370;48.916;8.380;2023-10-19T05:52:45;17.83;;;10.83;;
8665;SDS011;4370;48.916;8.380;2023-10-19T05:55:12;18.20;;;11.07;;
8665;SDS011;4370;48.916;8.380;2023-10-19T05:57:38;14.30;;;9.67;;
8665;SDS011;4370;48.916;8.380;2023-10-19T06:00:08;12.03;;;8.70;;
8665;SDS011;4370;48.916;8.380;2023-10-19T06:02:39;15.60;;;9.50;;
8665;SDS011;4370;48.916;8.380;2023-10-19T06:05:07;18.73;;;11.17;;
8665;SDS011;4370;48.916;8.380;2023-10-19T06:07:32;18.80;;;12.07;;
8665;SDS011;4370;48.916;8.380;2023-10-19T06:09:58;16.13;;;10.73;;
8665;SDS011;4370;48.916;8.380;2023-10-19T06:12:29;15.87;;;10.57;;
8665;SDS011;4370;48.916;8.380;2023-10-19T06:14:55;13.43;;;8.30;;
8665;SDS011;4370;48.916;8.380;2023-10-19T06:17:20;19.93;;;11.37;;
8665;SDS011;4370;48.916;8.380;2023-10-19T06:19:46;18.90;;;10.80;;
8665;SDS011;4370;48.916;8.380;2023-10-19T06:22:12;19.03;;;12.57;;
8665;SDS011;4370;48.916;8.380;2023-10-19T06:24:40;15.40;;;9.70;;
8665;SDS011;4370;48.916;8.380;2023-10-19T06:27:06;16.00;;;10.23;;
8665;SDS011;4370;48.916;8.380;2023-10-19T06:29:32;13.50;;;9.33;;
8665;SDS011;4370;48.916;8.380;2023-10-19T06:31:58;14.23;;;8.80;;
8665;SDS011;4370;48.916;8.380;2023-10-19T06:34:24;11.43;;;7.40;;
8665;SDS011;4370;48.916;8.380;2023-10-19T06:36:52;8.87;;;6.40;;
8665;SDS011;4370;48.916;8.380;2023-10-19T06:39:19;6.53;;;5.33;;
8665;SDS011;4370;48.916;8.380;2023-10-19T06:41:46;7.43;;;5.13;;
8665;SDS011;4370;48.916;8.380;2023-10-19T06:44:12;6.37;;;5.00;;
8665;SDS011;4370;48.916;8.380;2023-10-19T06:46:38;7.67;;;5.77;;
8665;SDS011;4370;48.916;8.380;2023-10-19T06:49:05;6.07;;;4.97;;
8665;SDS011;4370;48.916;8.380;2023-10-19T06:51:31;6.23;;;5.60;;
8665;SDS011;4370;48.916;8.380;2023-10-19T06:53:58;6.63;;;4.50;;
8665;SDS011;4370;48.916;8.380;2023-10-19T06:56:24;5.63;;;4.27;;
8665;SDS011;4370;48.916;8.380;2023-10-19T06:58:51;8.47;;;5.23;;
8665;SDS011;4370;48.916;8.380;2023-10-19T07:01:17;5.73;;;5.00;;
8665;SDS011;4370;48.916;8.380;2023-10-19T07:03:43;6.43;;;5.23;;
8665;SDS011;4370;48.916;8.380;2023-10-19T07:06:09;5.37;;;4.87;;
8665;SDS011;4370;48.916;8.380;2023-10-19T07:08:39;7.10;;;4.83;;
8665;SDS011;4370;48.916;8.380;2023-10-19T07:11:06;11.60;;;7.27;;
8665;SDS011;4370;48.916;8.380;2023-10-19T07:13:32;5.83;;;5.20;;
8665;SDS011;4370;48.916;8.380;2023-10-19T07:15:58;5.53;;;4.93;;
8665;SDS011;4370;48.916;8.380;2023-10-19T07:18:24;6.60;;;5.30;;
8665;SDS011;4370;48.916;8.380;2023-10-19T07:20:51;6.00;;;5.00;;
8665;SDS011;4370;48.916;8.380;2023-10-19T07:23:25;6.80;;;5.03;;
8665;SDS011;4370;48.916;8.380;2023-10-19T07:25:51;6.83;;;5.87;;
8665;SDS011;4370;48.916;8.380;2023-10-19T07:28:19;6.53;;;5.33;;
8665;SDS011;4370;48.916;8.380;2023-10-19T07:30:46;7.00;;;5.57;;
8665;SDS011;4370;48.916;8.380;2023-10-19T07:33:12;7.30;;;5.00;;
8665;SDS011;4370;48.916;8.380;2023-10-19T07:35:49;6.77;;;5.23;;
8665;SDS011;4370;48.916;8.380;2023-10-19T07:38:24;6.10;;;5.47;;
8665;SDS011;4370;48.916;8.380;2023-10-19T07:40:50;6.07;;;4.87;;
8665;SDS011;4370;48.916;8.380;2023-10-19T07:43:20;6.90;;;5.50;;
8665;SDS011;4370;48.916;8.380;2023-10-19T07:45:46;6.50;;;5.10;;
8665;SDS011;4370;48.916;8.380;2023-10-19T07:48:13;8.67;;;6.50;;
8665;SDS011;4370;48.916;8.380;2023-10-19T07:50:39;7.40;;;6.20;;
8665;SDS011;4370;48.916;8.380;2023-10-19T07:53:07;7.10;;;5.37;;
8665;SDS011;4370;48.916;8.380;2023-10-19T07:55:34;8.13;;;5.87;;
8665;SDS011;4370;48.916;8.380;2023-10-19T07:58:00;10.33;;;6.10;;
8665;SDS011;4370;48.916;8.380;2023-10-19T08:00:28;7.87;;;6.57;;
8665;SDS011;4370;48.916;8.380;2023-10-19T08:02:58;8.77;;;6.37;;
8665;SDS011;4370;48.916;8.380;2023-10-19T08:05:24;7.23;;;5.70;;
8665;SDS011;4370;48.916;8.380;2023-10-19T08:07:51;6.63;;;5.70;;
8665;SDS011;4370;48.916;8.380;2023-10-19T08:10:17;7.33;;;5.97;;
8665;SDS011;4370;48.916;8.380;2023-10-19T08:12:44;9.90;;;6.87;;
8665;SDS011;4370;48.916;8.380;2023-10-19T08:15:12;6.93;;;6.23;;
8665;SDS011;4370;48.916;8.380;2023-10-19T08:17:40;8.97;;;6.40;;
8665;SDS011;4370;48.916;8.380;2023-10-19T08:20:07;9.17;;;6.10;;
8665;SDS011;4370;48.916;8.380;2023-10-19T08:22:35;10.10;;;6.50;;
8665;SDS011;4370;48.916;8.380;2023-10-19T08:25:02;7.93;;;6.33;;
8665;SDS011;4370;48.916;8.380;2023-10-19T08:27:29;8.73;;;6.27;;
8665;SDS011;4370;48.916;8.380;2023-10-19T08:29:56;7.30;;;5.83;;
8665;SDS011;4370;48.916;8.380;2023-10-19T08:32:22;7.77;;;6.10;;
8665;SDS011;4370;48.916;8.380;2023-10-19T08:34:47;7.03;;;5.40;;
8665;SDS011;4370;48.916;8.380;2023-10-19T08:37:14;7.40;;;5.67;;
8665;SDS011;4370;48.916;8.380;2023-10-19T08:39:40;7.17;;;5.10;;
8665;SDS011;4370;48.916;8.380;2023-10-19T08:42:08;11.30;;;7.00;;
8665;SDS011;4370;48.916;8.380;2023-10-19T08:44:35;6.67;;;4.90;;
8665;SDS011;4370;48.916;8.380;2023-10-19T08:47:01;7.03;;;5.00;;
8665;SDS011;4370;48.916;8.380;2023-10-19T08:49:30;7.03;;;5.13;;
8665;SDS011;4370;48.916;8.380;2023-10-19T08:51:56;8.70;;;5.33;;
8665;SDS011;4370;48.916;8.380;2023-10-19T08:54:25;5.00;;;4.43;;
8665;SDS011;4370;48.916;8.380;2023-10-19T08:56:52;8.27;;;5.13;;
8665;SDS011;4370;48.916;8.380;2023-10-19T08:59:20;6.77;;;4.93;;
8665;SDS011;4370;48.916;8.380;2023-10-19T09:01:46;9.53;;;7.60;;
8665;SDS011;4370;48.916;8.380;2023-10-19T09:04:12;6.50;;;5.77;;
8665;SDS011;4370;48.916;8.380;2023-10-19T09:06:39;6.87;;;5.23;;
8665;SDS011;4370;48.916;8.380;2023-10-19T09:11:45;6.10;;;4.20;;
8665;SDS011;4370;48.916;8.380;2023-10-19T09:14:11;5.70;;;4.20;;
8665;SDS011;4370;48.916;8.380;2023-10-19T09:16:38;5.83;;;4.00;;
8665;SDS011;4370;48.916;8.380;2023-10-19T09:19:39;5.93;;;4.20;;
8665;SDS011;4370;48.916;8.380;2023-10-19T09:22:06;6.30;;;3.77;;
8665;SDS011;4370;48.916;8.380;2023-10-19T09:24:36;5.53;;;4.47;;
8665;SDS011;4370;48.916;8.380;2023-10-19T09:27:03;5.87;;;4.10;;
8665;SDS011;4370;48.916;8.380;2023-10-19T09:29:29;5.80;;;4.20;;
8665;SDS011;4370;48.916;8.380;2023-10-19T09:31:56;7.83;;;4.07;;
8665;SDS011;4370;48.916;8.380;2023-10-19T09:34:27;4.33;;;3.43;;
8665;SDS011;4370;48.916;8.380;2023-10-19T09:36:57;4.07;;;3.37;;
8665;SDS011;4370;48.916;8.380;2023-10-19T09:39:25;4.73;;;3.07;;
8665;SDS011;4370;48.916;8.380;2023-10-19T09:41:51;5.63;;;3.30;;
8665;SDS011;4370;48.916;8.380;2023-10-19T09:44:19;4.03;;;3.33;;
8665;SDS011;4370;48.916;8.380;2023-10-19T09:46:48;4.33;;;3.70;;
8665;SDS011;4370;48.916;8.380;2023-10-19T09:49:18;6.17;;;3.90;;
8665;SDS011;4370;48.916;8.380;2023-10-19T09:51:44;3.67;;;3.30;;
8665;SDS011;4370;48.916;8.380;2023-10-19T09:54:17;4.27;;;3.50;;
8665;SDS011;4370;48.916;8.380;2023-10-19T09:56:55;5.27;;;3.70;;
8665;SDS011;4370;48.916;8.380;2023-10-19T09:59:46;4.63;;;3.10;;
8665;SDS011;4370;48.916;8.380;2023-10-19T10:02:20;4.50;;;3.77;;
8665;SDS011;4370;48.916;8.380;2023-10-19T10:04:47;4.93;;;3.97;;
8665;SDS011;4370;48.916;8.380;2023-10-19T10:07:14;6.37;;;4.37;;
8665;SDS011;4370;48.916;8.380;2023-10-19T10:09:41;5.53;;;4.00;;
8665;SDS011;4370;48.916;8.380;2023-10-19T10:12:17;6.33;;;4.40;;
8665;SDS011;4370;48.916;8.380;2023-10-19T10:14:55;5.43;;;3.87;;
8665;SDS011;4370;48.916;8.380;2023-10-19T10:17:23;5.80;;;3.90;;
8665;SDS011;4370;48.916;8.380;2023-10-19T10:19:55;4.93;;;4.40;;
8665;SDS011;4370;48.916;8.380;2023-10-19T10:22:43;5.67;;;4.60;;
8665;SDS011;4370;48.916;8.380;2023-10-19T10:25:24;4.73;;;4.23;;
8665;SDS011;4370;48.916;8.380;2023-10-19T10:27:55;6.43;;;4.00;;
8665;SDS011;4370;48.916;8.380;2023-10-19T10:30:21;4.67;;;4.17;;
8665;SDS011;4370;48.916;8.380;2023-10-19T10:32:48;5.23;;;4.10;;
8665;SDS011;4370;48.916;8.380;2023-10-19T10:38:02;4.40;;;4.00;;
8665;SDS011;4370;48.916;8.380;2023-10-19T10:40:30;5.83;;;4.03;;
8665;SDS011;4370;48.916;8.380;2023-10-19T10:43:06;5.83;;;4.10;;
8665;SDS011;4370;48.916;8.380;2023-10-19T10:45:32;6.60;;;4.27;;
8665;SDS011;4370;48.916;8.380;2023-10-19T10:47:58;4.73;;;4.10;;
8665;SDS011;4370;48.916;8.380;2023-10-19T10:50:26;5.37;;;3.97;;
8665;SDS011;4370;48.916;8.380;2023-10-19T10:52:53;6.77;;;4.13;;
8665;SDS011;4370;48.916;8.380;2023-10-19T10:55:22;5.30;;;4.30;;
8665;SDS011;4370;48.916;8.380;2023-10-19T10:57:49;11.53;;;7.77;;
8665;SDS011;4370;48.916;8.380;2023-10-19T11:00:15;6.87;;;5.80;;
8665;SDS011;4370;48.916;8.380;2023-10-19T11:02:41;6.50;;;4.97;;
8665;SDS011;4370;48.916;8.380;2023-10-19T11:05:11;4.93;;;4.43;;
8665;SDS011;4370;48.916;8.380;2023-10-19T11:07:38;5.60;;;4.20;;
8665;SDS011;4370;48.916;8.380;2023-10-19T11:10:04;8.27;;;5.50;;
8665;SDS011;4370;48.916;8.380;2023-10-19T11:12:31;10.93;;;5.33;;
8665;SDS011;4370;48.916;8.380;2023-10-19T11:14:58;10.83;;;6.97;;
8665;SDS011;4370;48.916;8.380;2023-10-19T11:17:25;7.77;;;6.20;;
8665;SDS011;4370;48.916;8.380;2023-10-19T11:19:57;7.77;;;5.67;;
8665;SDS011;4370;48.916;8.380;2023-10-19T11:22:24;9.53;;;6.83;;
8665;SDS011;4370;48.916;8.380;2023-10-19T11:24:51;9.87;;;6.77;;
8665;SDS011;4370;48.916;8.380;2023-10-19T11:27:22;7.77;;;5.87;;
8665;SDS011;4370;48.916;8.380;2023-10-19T11:29:56;7.90;;;6.63;;
8665;SDS011;4370;48.916;8.380;2023-10-19T11:32:23;13.43;;;9.00;;
8665;SDS011;4370;48.916;8.380;2023-10-19T11:34:50;11.43;;;7.40;;
8665;SDS011;4370;48.916;8.380;2023-10-19T11:37:16;10.77;;;8.60;;
8665;SDS011;4370;48.916;8.380;2023-10-19T11:39:42;13.67;;;8.07;;
8665;SDS011;4370;48.916;8.380;2023-10-19T11:42:08;8.63;;;5.93;;
8665;SDS011;4370;48.916;8.380;2023-10-19T11:44:35;10.50;;;6.60;;
8665;SDS011;4370;48.916;8.380;2023-10-19T11:47:01;10.23;;;7.33;;
8665;SDS011;4370;48.916;8.380;2023-10-19T11:49:28;7.07;;;5.80;;
8665;SDS011;4370;48.916;8.380;2023-10-19T11:51:54;8.80;;;5.60;;
8665;SDS011;4370;48.916;8.380;2023-10-19T11:54:20;7.60;;;5.03;;
8665;SDS011;4370;48.916;8.380;2023-10-19T11:56:46;6.30;;;5.30;;
8665;SDS011;4370;48.916;8.380;2023-10-19T11:59:14;5.80;;;4.83;;
8665;SDS011;4370;48.916;8.380;2023-10-19T12:01:40;5.87;;;4.63;;
8665;SDS011;4370;48.916;8.380;2023-10-19T12:04:07;6.67;;;4.87;;
8665;SDS011;4370;48.916;8.380;2023-10-19T12:06:34;6.30;;;4.20;;
8665;SDS011;4370;48.916;8.380;2023-10-19T12:09:01;7.33;;;4.83;;
8665;SDS011;4370;48.916;8.380;2023-10-19T12:11:39;6.17;;;5.13;;
8665;SDS011;4370;48.916;8.380;2023-10-19T12:14:09;5.97;;;4.57;;
8665;SDS011;4370;48.916;8.380;2023-10-19T12:16:39;6.23;;;4.60;;
8665;SDS011;4370;48.916;8.380;2023-10-19T12:19:05;7.13;;;5.20;;
8665;SDS011;4370;48.916;8.380;2023-10-19T12:21:32;7.63;;;5.03;;
8665;SDS011;4370;48.916;8.380;2023-10-19T12:23:58;7.87;;;5.10;;
8665;SDS011;4370;48.916;8.380;2023-10-19T12:26:26;7.63;;;5.17;;
8665;SDS011;4370;48.916;8.380;2023-10-19T12:28:54;7.07;;;4.80;;
8665;SDS011;4370;48.916;8.380;2023-10-19T12:31:20;5.90;;;4.83;;
8665;SDS011;4370;48.916;8.380;2023-10-19T12:33:47;6.83;;;4.67;;
8665;SDS011;4370;48.916;8.380;2023-10-19T12:36:12;6.60;;;5.03;;
8665;SDS011;4370;48.916;8.380;2023-10-19T12:38:47;6.80;;;5.20;;
8665;SDS011;4370;48.916;8.380;2023-10-19T12:41:14;9.43;;;5.07;;
8665;SDS011;4370;48.916;8.380;2023-10-19T12:43:42;10.97;;;5.90;;
8665;SDS011;4370;48.916;8.380;2023-10-19T12:46:08;7.53;;;5.43;;
8665;SDS011;4370;48.916;8.380;2023-10-19T12:48:34;9.50;;;5.30;;
8665;SDS011;4370;48.916;8.380;2023-10-19T12:51:00;7.30;;;5.13;;
8665;SDS011;4370;48.916;8.380;2023-10-19T12:53:27;8.20;;;4.60;;
8665;SDS011;4370;48.916;8.380;2023-10-19T12:55:53;6.60;;;4.83;;
8665;SDS011;4370;48.916;8.380;2023-10-19T12:58:18;5.97;;;4.37;;
8665;SDS011;4370;48.916;8.380;2023-10-19T13:00:47;4.63;;;4.03;;
8665;SDS011;4370;48.916;8.380;2023-10-19T13:03:14;6.30;;;3.90;;
8665;SDS011;4370;48.916;8.380;2023-10-19T13:05:59;8.57;;;4.60;;
8665;SDS011;4370;48.916;8.380;2023-10-19T13:08:30;7.17;;;5.40;;
8665;SDS011;4370;48.916;8.380;2023-10-19T13:10:55;5.40;;;4.87;;
8665;SDS011;4370;48.916;8.380;2023-10-19T13:13:21;11.07;;;4.83;;
8665;SDS011;4370;48.916;8.380;2023-10-19T13:15:49;8.70;;;4.43;;
8665;SDS011;4370;48.916;8.380;2023-10-19T13:18:15;7.50;;;5.40;;
8665;SDS011;4370;48.916;8.380;2023-10-19T13:20:53;8.13;;;5.57;;
8665;SDS011;4370;48.916;8.380;2023-10-19T13:23:19;8.80;;;5.40;;
8665;SDS011;4370;48.916;8.380;2023-10-19T13:25:48;7.87;;;5.80;;
8665;SDS011;4370;48.916;8.380;2023-10-19T13:28:15;6.93;;;5.63;;
8665;SDS011;4370;48.916;8.380;2023-10-19T13:30:46;9.53;;;5.57;;
8665;SDS011;4370;48.916;8.380;2023-10-19T13:33:12;11.27;;;6.13;;
8665;SDS011;4370;48.916;8.380;2023-10-19T13:35:39;8.70;;;6.70;;
8665;SDS011;4370;48.916;8.380;2023-10-19T13:38:06;13.93;;;7.73;;
8665;SDS011;4370;48.916;8.380;2023-10-19T13:40:33;8.27;;;6.20;;
8665;SDS011;4370;48.916;8.380;2023-10-19T13:43:09;7.60;;;5.97;;
8665;SDS011;4370;48.916;8.380;2023-10-19T13:45:38;6.37;;;5.43;;
8665;SDS011;4370;48.916;8.380;2023-10-19T13:48:06;19.67;;;9.40;;
8665;SDS011;4370;48.916;8.380;2023-10-19T13:50:32;8.20;;;6.20;;
8665;SDS011;4370;48.916;8.380;2023-10-19T13:52:59;9.13;;;6.70;;
8665;SDS011;4370;48.916;8.380;2023-10-19T13:55:26;9.33;;;5.93;;
8665;SDS011;4370;48.916;8.380;2023-10-19T13:57:53;6.73;;;5.77;;
8665;SDS011;4370;48.916;8.380;2023-10-19T14:00:21;8.27;;;5.43;;
8665;SDS011;4370;48.916;8.380;2023-10-19T14:03:03;10.13;;;6.10;;
8665;SDS011;4370;48.916;8.380;2023-10-19T14:05:30;6.20;;;5.60;;
8665;SDS011;4370;48.916;8.380;2023-10-19T14:07:56;10.90;;;7.07;;
8665;SDS011;4370;48.916;8.380;2023-10-19T14:10:21;8.10;;;6.40;;
8665;SDS011;4370;48.916;8.380;2023-10-19T14:12:47;11.50;;;8.37;;
8665;SDS011;4370;48.916;8.380;2023-10-19T14:15:17;12.90;;;9.00;;
8665;SDS011;4370;48.916;8.380;2023-10-19T14:17:52;8.83;;;7.10;;
8665;SDS011;4370;48.916;8.380;2023-10-19T14:20:17;13.90;;;9.17;;
8665;SDS011;4370;48.916;8.380;2023-10-19T14:22:44;11.23;;;8.57;;
8665;SDS011;4370;48.916;8.380;2023-10-19T14:25:12;9.50;;;7.90;;
8665;SDS011;4370;48.916;8.380;2023-10-19T14:27:41;12.97;;;8.57;;
8665;SDS011;4370;48.916;8.380;2023-10-19T14:30:08;9.47;;;7.00;;
8665;SDS011;4370;48.916;8.380;2023-10-19T14:32:37;7.30;;;5.80;;
8665;SDS011;4370;48.916;8.380;2023-10-19T14:35:04;8.87;;;5.80;;
8665;SDS011;4370;48.916;8.380;2023-10-19T14:37:34;9.63;;;7.80;;
8665;SDS011;4370;48.916;8.380;2023-10-19T14:39:59;9.13;;;6.27;;
8665;SDS011;4370;48.916;8.380;2023-10-19T14:42:25;6.93;;;5.40;;
8665;SDS011;4370;48.916;8.380;2023-10-19T14:44:55;9.07;;;6.60;;
8665;SDS011;4370;48.916;8.380;2023-10-19T14:47:21;8.77;;;6.87;;
8665;SDS011;4370;48.916;8.380;2023-10-19T14:49:47;6.97;;;5.50;;
8665;SDS011;4370;48.916;8.380;2023-10-19T14:52:13;12.17;;;7.30;;
8665;SDS011;4370;48.916;8.380;2023-10-19T14:54:40;10.43;;;7.50;;
8665;SDS011;4370;48.916;8.380;2023-10-19T14:57:06;8.33;;;7.03;;
8665;SDS011;4370;48.916;8.380;2023-10-19T14:59:33;10.47;;;7.17;;
8665;SDS011;4370;48.916;8.380;2023-10-19T15:02:00;10.33;;;7.00;;
8665;SDS011;4370;48.916;8.380;2023-10-19T15:04:26;10.80;;;6.83;;
8665;SDS011;4370;48.916;8.380;2023-10-19T15:06:52;12.17;;;8.93;;
8665;SDS011;4370;48.916;8.380;2023-10-19T15:09:18;10.33;;;7.83;;
8665;SDS011;4370;48.916;8.380;2023-10-19T15:11:50;11.33;;;8.00;;
8665;SDS011;4370;48.916;8.380;2023-10-19T15:14:16;9.03;;;6.47;;
8665;SDS011;4370;48.916;8.380;2023-10-19T15:16:41;8.13;;;5.70;;
8665;SDS011;4370;48.916;8.380;2023-10-19T15:19:08;7.30;;;5.97;;
8665;SDS011;4370;48.916;8.380;2023-10-19T15:21:37;9.50;;;6.90;;
8665;SDS011;4370;48.916;8.380;2023-10-19T15:24:03;12.57;;;8.70;;
8665;SDS011;4370;48.916;8.380;2023-10-19T15:26:30;7.00;;;6.30;;